Muroran, Japan

8:23 PM JST on February 10, 2016 (GMT +0900)
Sapporo | | Change Station
CLOSE
Current Station
Airport
Location: Sapporo AB,
Elevation: 33 ft
Nearby Weather Stations

Elev 33 ft 43.12 °N, 141.38 °E | Updated 8 minutes ago

Light Snow Showers
Light Showers Snow
25 °F
Feels Like 9 °F
N
24
Wind Variable Wind from NW

Today
High -- | Low -- °F
--% Chance of Precip.
Yesterday
High -- | Low -- °F
Precip. -- in
Pressure 30.12 in
Visibility 3.1 miles
Clouds Few 800 ft
Scattered Clouds 2000 ft
Mostly Cloudy 5000 ft
Windchill 9 °F
Dew Point 21 °F
Humidity 86%
Rainfall 0.00 in
Snow Depth Not available.
6:40 AM 5:00 PM
Waxing Crescent, 5% visible
SPECI RJCO 101115Z 32021KT 5000 R32/P1800 -SHSN FEW008 SCT020 BKN050 M04/M06 Q1020 RMK 1ST008 4CU020 7CU050 A3013
Pressure 30.12 in
Visibility 3.1 miles
Clouds Few 800 ft
Scattered Clouds 2000 ft
Mostly Cloudy 5000 ft
Windchill 9 °F
Dew Point 21 °F
Humidity 86%
Rainfall 0.00 in
Snow Depth Not available.
6:40 AM 5:00 PM
Waxing Crescent, 5% visible
SPECI RJCO 101115Z 32021KT 5000 R32/P1800 -SHSN FEW008 SCT020 BKN050 M04/M06 Q1020 RMK 1ST008 4CU020 7CU050 A3013

10-Day Weather Forecast

No radar image for this location.
×

Almanac

Astronomy

Feb. 10, 2016 Rise Set
Actual Time
Civil Twilight
Nautical Twilight
Astronomical Twilight
Moon
Length of Visible Light
Length of Day
Tomorrow will be .
, % of the Moon is Illuminated

Today's Extremes

Country Highs Country Lows

Community

WunderPhotos

Upload Photos

1,891,830 photos uploaded!

WunderBlog® & News

Nearby

Air Quality

  Air Quality AQ Index Pollutant
Not available.

Snow Depth

Station Depth Elevation

Earthquake Activity

City Distance Mag. Time & Date
Minimum magnitude displayed is 2.5.

Coastal Water Temperatures

Place Temperature

Stations

Nearby Weather Stations

Station Location Temp. Windchill Dew Point Humidity Wind Precip. Elev Updated Type